Time;durP1;ratioP1;P1;durP2;ratioP2;P2;SDS_P1;SDS_P2;PMS_P1;PMS_P2;Temp;Humidity;BMP_temperature;BMP_pressure;BME280_temperature;BME280_humidity;BME280_pressure;Samples;Min_cycle;Max_cycle;Signal;HPM_P1;HPM_P2
2022/01/19 00:00:08;;;;;;;66.70;27.40;;;4.80;99.90;;;;;;5080846;28;20404;-68
2022/01/19 00:02:34;;;;;;;70.20;26.88;;;4.70;99.90;;;;;;5072891;28;20052;-68
2022/01/19 00:04:59;;;;;;;70.13;27.23;;;4.70;99.90;;;;;;5072610;28;20044;-66
2022/01/19 00:07:25;;;;;;;60.72;25.08;;;4.70;99.90;;;;;;5072513;28;20049;-67
2022/01/19 00:09:50;;;;;;;59.20;25.02;;;4.80;99.90;;;;;;5079770;28;20476;-67
2022/01/19 00:12:16;;;;;;;68.22;26.55;;;4.80;99.90;;;;;;5081280;28;20052;-68
2022/01/19 00:14:42;;;;;;;63.55;27.23;;;4.80;99.90;;;;;;5071954;28;20064;-68
2022/01/19 00:17:07;;;;;;;66.03;28.10;;;4.80;99.90;;;;;;5055145;28;20055;-67
2022/01/19 00:19:33;;;;;;;60.65;26.70;;;4.80;99.90;;;;;;5072584;28;20140;-67
2022/01/19 00:21:59;;;;;;;58.50;25.65;;;4.80;99.90;;;;;;5076125;28;20062;-67
2022/01/19 00:24:24;;;;;;;57.55;25.00;;;4.80;99.90;;;;;;5084814;28;20063;-67
2022/01/19 00:26:50;;;;;;;62.30;26.83;;;4.80;99.90;;;;;;5078610;28;20056;-66
2022/01/19 00:29:15;;;;;;;52.72;22.70;;;4.80;99.90;;;;;;5092166;28;20044;-69
2022/01/19 00:31:41;;;;;;;56.30;23.75;;;4.90;99.90;;;;;;5078034;28;20071;-67
2022/01/19 00:34:06;;;;;;;55.95;22.70;;;4.90;99.90;;;;;;5080156;28;20437;-66
2022/01/19 00:36:32;;;;;;;53.47;23.85;;;5.00;99.90;;;;;;5071714;28;20056;-67
2022/01/19 00:38:58;;;;;;;55.92;24.65;;;4.90;99.90;;;;;;5088565;28;20097;-67
2022/01/19 00:41:23;;;;;;;51.45;22.25;;;4.90;99.90;;;;;;5089257;28;20052;-68
2022/01/19 00:43:49;;;;;;;49.35;21.65;;;5.00;99.90;;;;;;5073868;28;20067;-67
2022/01/19 00:46:14;;;;;;;47.38;20.85;;;4.90;99.90;;;;;;5084604;28;20062;-66
2022/01/19 00:48:41;;;;;;;50.88;20.58;;;4.90;99.90;;;;;;5088764;28;20110;-67
2022/01/19 00:51:07;;;;;;;45.17;19.42;;;4.90;99.90;;;;;;5071373;28;20088;-67
2022/01/19 00:53:32;;;;;;;52.28;22.08;;;4.80;99.90;;;;;;5082118;28;20140;-68
2022/01/19 00:55:58;;;;;;;50.65;20.98;;;4.70;99.90;;;;;;5125142;27;20401;-67
2022/01/19 00:58:25;;;;;;;50.88;20.92;;;4.60;99.90;;;;;;5091473;28;20127;-66
2022/01/19 01:00:51;;;;;;;48.85;20.73;;;4.50;99.90;;;;;;5088682;28;20055;-67
2022/01/19 01:03:16;;;;;;;43.13;19.85;;;4.40;99.90;;;;;;5078937;28;20041;-66
2022/01/19 01:05:44;;;;;;;49.35;21.15;;;4.50;99.90;;;;;;5085542;28;20110;-67
2022/01/19 01:08:10;;;;;;;48.85;21.45;;;4.40;99.90;;;;;;5066857;28;20053;-66
2022/01/19 01:10:42;;;;;;;52.78;21.20;;;4.40;99.90;;;;;;5071428;28;20385;-67
2022/01/19 01:13:24;;;;;;;42.00;19.52;;;4.50;99.90;;;;;;5073072;28;20149;-68
2022/01/19 01:18:27;;;;;;;56.80;23.17;;;4.50;99.90;;;;;;5093069;28;20044;-68
2022/01/19 01:20:55;;;;;;;53.80;22.35;;;4.50;99.90;;;;;;5082389;28;20059;-67
2022/01/19 01:23:24;;;;;;;60.70;24.42;;;4.50;99.90;;;;;;5074089;28;20131;-68
2022/01/19 01:25:51;;;;;;;56.45;23.17;;;4.50;99.90;;;;;;5086657;28;20078;-67
2022/01/19 01:28:17;;;;;;;56.58;23.23;;;4.60;99.90;;;;;;5071200;28;20055;-66
2022/01/19 01:30:43;;;;;;;54.60;23.85;;;4.60;99.90;;;;;;5070669;28;20048;-67
2022/01/19 01:33:09;;;;;;;60.97;23.65;;;4.60;99.90;;;;;;5071630;28;20052;-68
2022/01/19 01:35:35;;;;;;;60.85;25.67;;;4.60;99.90;;;;;;5074603;28;20067;-70
2022/01/19 01:38:02;;;;;;;65.03;25.38;;;4.60;99.90;;;;;;5129327;27;20052;-65
2022/01/19 01:40:28;;;;;;;64.82;24.70;;;4.60;99.90;;;;;;5094454;28;20120;-68
2022/01/19 01:42:56;;;;;;;59.08;23.98;;;4.60;99.90;;;;;;5095048;28;20062;-68
2022/01/19 01:45:27;;;;;;;58.63;23.88;;;4.60;99.90;;;;;;5096177;28;20141;-69
2022/01/19 01:48:03;;;;;;;57.13;23.13;;;4.60;99.90;;;;;;5094819;28;20059;-68
2022/01/19 01:53:26;;;;;;;59.83;24.55;;;4.60;99.90;;;;;;5090233;28;20463;-69
2022/01/19 01:55:53;;;;;;;58.92;23.08;;;4.50;99.90;;;;;;5075262;28;20504;-66
2022/01/19 01:58:19;;;;;;;56.92;23.70;;;4.50;99.90;;;;;;5093525;28;20052;-67
2022/01/19 02:00:44;;;;;;;61.78;23.90;;;4.50;99.90;;;;;;5114670;28;20057;-67
2022/01/19 02:03:12;;;;;;;56.13;24.40;;;4.50;99.90;;;;;;5077406;28;20110;-69
2022/01/19 02:05:47;;;;;;;63.33;25.55;;;4.60;99.90;;;;;;5074552;28;20106;-68
2022/01/19 02:08:18;;;;;;;51.63;23.77;;;4.50;99.90;;;;;;5125742;27;20049;-66
2022/01/19 02:16:24;;;;;;;63.92;24.60;;;4.50;99.90;;;;;;5074125;28;20056;-68
2022/01/19 02:21:58;;;;;;;68.18;25.13;;;4.40;99.90;;;;;;5084416;28;20044;-67
2022/01/19 02:24:29;;;;;;;61.88;25.50;;;4.50;99.90;;;;;;5078110;28;20055;-66
2022/01/19 02:40:29;;;;;;;59.80;24.30;;;4.30;99.90;;;;;;5092742;28;20040;-67
2022/01/19 02:50:57;;;;;;;71.85;26.98;;;4.20;99.90;;;;;;5092389;28;20127;-67
2022/01/19 02:53:23;;;;;;;69.20;26.88;;;4.10;99.90;;;;;;5077172;28;20181;-66
2022/01/19 02:55:48;;;;;;;80.43;28.45;;;4.10;99.90;;;;;;5066750;28;20052;-68
2022/01/19 02:58:17;;;;;;;72.80;26.73;;;4.10;99.90;;;;;;5087411;28;20147;-68
2022/01/19 03:08:54;;;;;;;65.82;25.95;;;4.10;99.90;;;;;;5075953;28;20106;-67
2022/01/19 03:11:23;;;;;;;62.83;25.58;;;4.20;99.90;;;;;;5094388;28;20369;-68
2022/01/19 03:13:49;;;;;;;63.08;25.40;;;4.10;99.90;;;;;;5074604;28;20045;-68
2022/01/19 03:16:18;;;;;;;64.30;26.83;;;4.20;99.90;;;;;;5072656;28;20117;-69
2022/01/19 03:18:43;;;;;;;79.10;27.58;;;4.20;99.90;;;;;;5074184;28;20445;-67
2022/01/19 03:21:09;;;;;;;67.18;25.30;;;4.20;99.90;;;;;;5056834;28;20049;-67
2022/01/19 03:23:34;;;;;;;62.80;26.83;;;4.10;99.90;;;;;;5074071;28;20379;-67
2022/01/19 03:26:05;;;;;;;68.75;27.83;;;4.10;99.90;;;;;;5078997;28;20048;-67
2022/01/19 03:28:31;;;;;;;61.40;25.55;;;4.10;99.90;;;;;;5072984;28;20484;-66
2022/01/19 03:30:57;;;;;;;67.25;26.33;;;4.10;99.90;;;;;;5073670;28;20060;-67
2022/01/19 03:33:22;;;;;;;75.90;27.85;;;4.10;99.90;;;;;;5090015;28;20194;-67
2022/01/19 03:35:48;;;;;;;68.47;27.40;;;4.00;99.90;;;;;;5092410;28;20487;-66
2022/01/19 03:38:14;;;;;;;74.65;26.67;;;4.00;99.90;;;;;;5093429;28;20056;-70
2022/01/19 03:40:40;;;;;;;66.28;27.25;;;4.00;99.90;;;;;;5074678;28;20098;-68
2022/01/19 03:43:06;;;;;;;65.60;27.13;;;4.00;99.90;;;;;;5072774;28;20094;-67
2022/01/19 03:45:33;;;;;;;74.72;26.70;;;3.90;99.90;;;;;;5073748;28;20045;-68
2022/01/19 03:50:51;;;;;;;80.03;28.45;;;3.90;99.90;;;;;;5062143;28;20056;-68
2022/01/19 03:53:17;;;;;;;72.63;27.50;;;3.80;99.90;;;;;;5076150;28;20393;-69
2022/01/19 03:55:43;;;;;;;75.53;27.23;;;3.80;99.90;;;;;;5088778;28;20492;-67
2022/01/19 03:58:08;;;;;;;65.63;24.52;;;3.90;99.90;;;;;;5092433;28;20492;-67
2022/01/19 04:00:39;;;;;;;73.00;26.38;;;3.90;99.90;;;;;;5091804;28;20052;-67
2022/01/19 04:03:06;;;;;;;70.85;26.02;;;3.90;99.90;;;;;;5092064;28;20047;-66
2022/01/19 04:05:54;;;;;;;59.45;23.50;;;3.80;99.90;;;;;;5091971;28;20121;-66
2022/01/19 04:08:20;;;;;;;61.35;26.02;;;3.80;99.90;;;;;;5072694;28;20044;-68
2022/01/19 04:10:45;;;;;;;57.47;25.23;;;3.80;99.90;;;;;;5089745;28;20122;-66
2022/01/19 04:13:24;;;;;;;74.25;27.17;;;3.80;99.90;;;;;;5072393;28;20109;-68
2022/01/19 04:15:51;;;;;;;61.15;25.33;;;3.80;99.90;;;;;;5084046;28;20446;-66
2022/01/19 04:18:17;;;;;;;66.10;25.08;;;3.70;99.90;;;;;;5092329;28;20077;-66
2022/01/19 04:20:47;;;;;;;62.63;26.40;;;3.70;99.90;;;;;;5081545;28;20049;-67
2022/01/19 04:23:13;;;;;;;60.10;24.27;;;3.70;99.90;;;;;;5086163;28;20059;-66
2022/01/19 04:25:38;;;;;;;68.40;27.48;;;3.70;99.90;;;;;;5077368;28;20045;-67
2022/01/19 04:28:07;;;;;;;56.90;23.83;;;3.60;99.90;;;;;;5071745;28;20079;-68
2022/01/19 04:30:34;;;;;;;70.10;26.25;;;3.60;99.90;;;;;;5081427;28;20100;-66
2022/01/19 04:33:06;;;;;;;57.15;24.02;;;3.60;99.90;;;;;;5091476;28;20129;-67
2022/01/19 04:35:43;;;;;;;61.35;25.40;;;3.50;99.90;;;;;;5091034;28;20538;-67
2022/01/19 04:44:04;;;;;;;57.28;23.88;;;3.40;99.90;;;;;;5085774;28;20455;-67
2022/01/19 04:49:12;;;;;;;64.60;24.95;;;3.30;99.90;;;;;;5091792;28;20052;-67
2022/01/19 05:05:13;;;;;;;76.57;29.05;;;3.20;99.90;;;;;;5091947;28;20373;-68
2022/01/19 05:07:44;;;;;;;72.32;27.00;;;3.20;99.90;;;;;;5088119;28;20052;-67
2022/01/19 05:15:38;;;;;;;65.47;26.23;;;3.30;99.90;;;;;;5071152;28;20064;-68
2022/01/19 05:18:05;;;;;;;60.30;25.40;;;3.20;99.90;;;;;;5078436;28;20448;-66
2022/01/19 05:20:31;;;;;;;61.13;25.52;;;3.20;99.90;;;;;;5082803;28;20052;-67
2022/01/19 05:22:57;;;;;;;60.17;25.73;;;3.20;99.90;;;;;;5090898;28;20070;-68
2022/01/19 05:25:22;;;;;;;55.85;25.30;;;3.10;99.90;;;;;;5089464;28;20052;-66
2022/01/19 05:27:48;;;;;;;56.08;25.50;;;3.10;99.90;;;;;;5086854;28;20045;-66
2022/01/19 05:30:17;;;;;;;63.13;25.55;;;3.10;99.90;;;;;;5078675;28;20053;-66
2022/01/19 05:32:45;;;;;;;64.68;26.13;;;3.10;99.90;;;;;;5123388;28;20080;-67
2022/01/19 05:35:11;;;;;;;71.35;26.30;;;3.10;99.90;;;;;;5090496;28;20059;-68
2022/01/19 05:37:37;;;;;;;66.80;25.50;;;3.00;99.90;;;;;;5083107;28;20408;-67
2022/01/19 05:40:07;;;;;;;66.53;27.17;;;3.10;99.90;;;;;;5088716;28;20047;-67
2022/01/19 05:42:32;;;;;;;65.55;26.52;;;3.00;99.90;;;;;;5071001;28;20061;-67
2022/01/19 05:44:58;;;;;;;65.93;28.50;;;3.10;99.90;;;;;;5071319;28;20106;-67
2022/01/19 05:47:24;;;;;;;69.68;28.10;;;3.00;99.90;;;;;;5071202;28;20056;-67
2022/01/19 05:49:49;;;;;;;70.53;28.08;;;3.10;99.90;;;;;;5090726;28;20488;-67
2022/01/19 05:52:15;;;;;;;62.63;27.50;;;3.10;99.90;;;;;;5091311;28;20514;-65
2022/01/19 05:54:41;;;;;;;66.45;28.55;;;3.10;99.90;;;;;;5085758;28;20045;-66
2022/01/19 05:57:07;;;;;;;66.10;28.77;;;3.10;99.90;;;;;;5080307;28;20051;-65
2022/01/19 05:59:32;;;;;;;68.65;29.42;;;3.10;99.90;;;;;;5089262;28;20526;-67
2022/01/19 06:01:58;;;;;;;72.05;30.45;;;3.10;99.90;;;;;;5089526;28;20384;-66
2022/01/19 06:04:24;;;;;;;74.07;31.10;;;3.10;99.90;;;;;;5089663;28;20056;-68
2022/01/19 06:06:52;;;;;;;68.15;30.17;;;3.10;99.90;;;;;;5090738;28;20054;-67
2022/01/19 06:09:48;;;;;;;68.03;29.25;;;3.20;99.90;;;;;;5090665;28;20055;-67
2022/01/19 06:12:14;;;;;;;65.55;27.83;;;3.20;99.90;;;;;;5091169;28;20123;-66
2022/01/19 06:14:44;;;;;;;68.07;29.35;;;3.20;99.90;;;;;;5090274;28;20565;-67
2022/01/19 06:17:12;;;;;;;68.85;30.27;;;3.20;99.90;;;;;;5070653;28;20119;-68
2022/01/19 06:19:39;;;;;;;67.72;30.20;;;3.30;99.90;;;;;;5074715;28;20048;-66
2022/01/19 06:22:04;;;;;;;68.07;29.35;;;3.30;99.90;;;;;;5107133;28;20074;-67
2022/01/19 06:24:30;;;;;;;71.15;31.77;;;3.30;99.90;;;;;;5074596;28;20040;-66
2022/01/19 06:26:56;;;;;;;62.95;29.98;;;3.40;99.90;;;;;;5074503;28;20059;-65
2022/01/19 06:29:22;;;;;;;61.95;29.70;;;3.30;99.90;;;;;;5089606;28;20044;-68
2022/01/19 06:31:48;;;;;;;61.00;28.63;;;3.30;99.90;;;;;;5088784;28;20090;-67
2022/01/19 06:34:14;;;;;;;67.32;30.27;;;3.30;99.90;;;;;;5081421;28;20166;-66
2022/01/19 06:36:40;;;;;;;60.40;28.25;;;3.30;99.90;;;;;;5094608;28;20044;-66
2022/01/19 06:39:06;;;;;;;68.75;28.55;;;3.30;99.90;;;;;;5092967;28;20401;-67
2022/01/19 06:41:32;;;;;;;64.15;28.08;;;3.40;99.90;;;;;;5077452;28;20048;-67
2022/01/19 06:43:58;;;;;;;58.65;26.85;;;3.30;99.90;;;;;;5075950;28;20049;-67
2022/01/19 06:46:23;;;;;;;58.15;27.80;;;3.30;99.90;;;;;;5094385;28;20048;-67
2022/01/19 06:48:53;;;;;;;50.90;26.02;;;3.30;99.90;;;;;;5091946;28;20044;-66
2022/01/19 06:51:18;;;;;;;58.28;27.20;;;3.30;99.90;;;;;;5081284;28;20083;-67
2022/01/19 06:53:44;;;;;;;57.00;24.15;;;3.30;99.90;;;;;;5067781;28;20076;-68
2022/01/19 06:56:09;;;;;;;56.85;25.63;;;3.40;99.90;;;;;;5081608;28;20499;-67
2022/01/19 06:58:35;;;;;;;53.20;26.20;;;3.30;99.90;;;;;;5096124;28;20055;-67
2022/01/19 07:01:01;;;;;;;55.30;26.25;;;3.40;99.90;;;;;;5113793;28;20365;-67
2022/01/19 07:03:27;;;;;;;53.28;25.83;;;3.40;99.90;;;;;;5092289;28;20117;-66
2022/01/19 07:05:52;;;;;;;56.90;26.13;;;3.50;99.90;;;;;;5093930;28;20047;-69
2022/01/19 07:08:18;;;;;;;56.53;26.67;;;3.50;99.90;;;;;;5095026;28;20079;-66
2022/01/19 07:10:44;;;;;;;55.33;25.70;;;3.40;99.90;;;;;;5092927;28;20058;-67
2022/01/19 07:13:09;;;;;;;54.42;26.20;;;3.50;99.90;;;;;;5083975;28;20097;-66
2022/01/19 07:15:36;;;;;;;50.65;24.83;;;3.50;99.90;;;;;;5073334;28;20127;-67
2022/01/19 07:18:03;;;;;;;48.05;25.25;;;3.50;99.90;;;;;;5056278;28;20044;-67
2022/01/19 07:20:29;;;;;;;49.10;24.23;;;3.50;99.90;;;;;;5074805;28;20048;-65
2022/01/19 07:22:56;;;;;;;45.47;24.58;;;3.50;99.90;;;;;;5073307;28;20140;-68
2022/01/19 07:25:22;;;;;;;48.72;24.10;;;3.50;99.90;;;;;;5082727;28;20411;-67
2022/01/19 07:27:48;;;;;;;48.08;24.73;;;3.40;99.90;;;;;;5118690;27;20052;-67
2022/01/19 07:30:14;;;;;;;44.83;24.38;;;3.50;99.90;;;;;;5073130;28;20381;-68
2022/01/19 07:32:39;;;;;;;44.17;24.73;;;3.40;99.90;;;;;;5072625;28;20048;-67
2022/01/19 07:35:06;;;;;;;45.53;24.17;;;3.40;99.90;;;;;;5074069;28;20106;-65
2022/01/19 07:37:32;;;;;;;43.28;23.92;;;3.40;99.90;;;;;;5072727;28;20052;-66
2022/01/19 07:39:58;;;;;;;41.80;22.40;;;3.40;99.90;;;;;;5080422;28;20063;-67
2022/01/19 07:42:27;;;;;;;41.60;24.08;;;3.40;99.90;;;;;;5092527;28;20431;-66
2022/01/19 07:44:53;;;;;;;49.63;23.85;;;3.40;99.90;;;;;;5079727;28;20107;-68
2022/01/19 07:47:20;;;;;;;42.95;23.48;;;3.40;99.90;;;;;;5071926;28;20064;-68
2022/01/19 07:49:46;;;;;;;41.25;21.88;;;3.40;99.90;;;;;;5078265;28;20051;-67
2022/01/19 07:52:12;;;;;;;39.38;23.00;;;3.30;99.90;;;;;;5081607;28;20044;-67
2022/01/19 07:54:38;;;;;;;41.90;23.15;;;3.30;99.90;;;;;;5087937;28;20062;-69
2022/01/19 07:57:04;;;;;;;41.33;23.40;;;3.30;99.90;;;;;;5090309;28;20048;-67
2022/01/19 07:59:31;;;;;;;43.08;23.48;;;3.40;99.90;;;;;;5117311;27;20408;-66
2022/01/19 08:01:57;;;;;;;39.22;22.15;;;3.40;99.90;;;;;;5075599;28;20484;-67
2022/01/19 08:04:22;;;;;;;40.50;23.88;;;3.40;99.90;;;;;;5084444;28;20231;-69
2022/01/19 08:06:54;;;;;;;42.10;23.50;;;3.40;99.90;;;;;;5072411;28;20528;-67
2022/01/19 08:09:20;;;;;;;40.28;23.55;;;3.40;99.90;;;;;;5083975;28;20131;-67
2022/01/19 08:11:46;;;;;;;38.60;22.83;;;3.40;99.90;;;;;;5090847;28;20510;-68
2022/01/19 08:14:11;;;;;;;42.72;24.52;;;3.40;99.90;;;;;;5077355;28;20057;-66
2022/01/19 08:16:37;;;;;;;38.88;24.05;;;3.50;99.90;;;;;;5105798;28;20404;-66
2022/01/19 08:19:02;;;;;;;42.42;24.92;;;3.40;99.90;;;;;;5075882;28;20052;-67
2022/01/19 08:21:28;;;;;;;39.22;23.15;;;3.50;99.90;;;;;;5092669;28;20116;-66
2022/01/19 08:23:54;;;;;;;39.72;24.02;;;3.40;99.90;;;;;;5085998;28;20541;-70
2022/01/19 08:26:19;;;;;;;40.38;23.75;;;3.40;99.90;;;;;;5080405;28;20447;-67
2022/01/19 08:28:45;;;;;;;38.80;23.85;;;3.40;99.90;;;;;;5075959;28;20039;-67
2022/01/19 08:31:10;;;;;;;39.50;23.38;;;3.40;99.90;;;;;;5084270;28;20044;-67
2022/01/19 08:33:36;;;;;;;42.58;23.85;;;3.40;99.90;;;;;;5075232;28;20062;-68
2022/01/19 08:36:02;;;;;;;40.63;24.25;;;3.50;99.90;;;;;;5086906;28;20052;-67
2022/01/19 08:38:27;;;;;;;42.20;24.67;;;3.40;99.90;;;;;;5092355;28;20500;-69
2022/01/19 08:40:53;;;;;;;42.10;25.63;;;3.50;99.90;;;;;;5100387;27;20044;-68
2022/01/19 08:43:18;;;;;;;41.72;25.83;;;3.50;99.90;;;;;;5085641;28;20140;-68
2022/01/19 08:45:44;;;;;;;42.85;26.63;;;3.50;99.90;;;;;;5073458;28;20097;-68
2022/01/19 08:48:10;;;;;;;48.85;27.85;;;3.50;99.90;;;;;;5089129;28;20109;-69
2022/01/19 08:50:36;;;;;;;45.97;30.35;;;3.50;99.90;;;;;;5092356;28;20055;-69
2022/01/19 08:53:02;;;;;;;42.90;25.10;;;3.50;99.90;;;;;;5090830;28;20098;-67
2022/01/19 08:55:28;;;;;;;41.13;25.52;;;3.50;99.90;;;;;;5092172;28;20056;-68
2022/01/19 08:57:54;;;;;;;39.50;25.58;;;3.50;99.90;;;;;;5089488;28;20139;-67
2022/01/19 09:00:21;;;;;;;39.08;24.60;;;3.60;99.90;;;;;;5092925;28;20044;-68
2022/01/19 09:02:46;;;;;;;39.50;23.60;;;3.60;99.90;;;;;;5090359;28;20385;-68
2022/01/19 09:05:12;;;;;;;41.70;24.52;;;3.60;99.90;;;;;;5073975;28;20075;-68
2022/01/19 09:07:39;;;;;;;42.58;25.63;;;3.60;99.90;;;;;;5063880;28;20510;-69
2022/01/19 09:10:07;;;;;;;43.65;26.35;;;3.60;99.90;;;;;;5090071;28;20511;-67
2022/01/19 09:12:34;;;;;;;43.10;24.48;;;3.60;99.90;;;;;;5116867;28;20131;-67
2022/01/19 09:14:59;;;;;;;42.63;27.42;;;3.60;99.90;;;;;;5091711;28;20044;-69
2022/01/19 09:17:25;;;;;;;48.28;27.08;;;3.60;99.90;;;;;;5090943;28;20058;-67
2022/01/19 09:19:51;;;;;;;42.13;26.88;;;3.60;99.90;;;;;;5088560;28;20078;-67
2022/01/19 09:22:16;;;;;;;48.22;29.25;;;3.60;99.90;;;;;;5091541;28;20090;-68
2022/01/19 09:24:43;;;;;;;48.00;28.65;;;3.60;99.90;;;;;;5087623;28;20052;-69
2022/01/19 09:27:09;;;;;;;47.78;28.15;;;3.60;99.90;;;;;;5073230;28;20072;-69
2022/01/19 09:29:38;;;;;;;50.45;29.67;;;3.60;99.90;;;;;;5087167;28;20055;-68
2022/01/19 09:32:07;;;;;;;51.30;30.52;;;3.70;99.90;;;;;;5090181;28;20434;-68
2022/01/19 09:34:34;;;;;;;51.80;29.33;;;3.60;99.90;;;;;;5091655;28;20067;-68
2022/01/19 09:37:00;;;;;;;49.90;29.45;;;3.60;99.90;;;;;;5073886;28;20051;-70
2022/01/19 09:39:26;;;;;;;50.38;30.02;;;3.70;99.90;;;;;;5091293;28;20056;-69
2022/01/19 09:41:54;;;;;;;53.13;31.50;;;3.70;99.90;;;;;;5090208;28;20475;-68
2022/01/19 09:44:22;;;;;;;46.38;30.17;;;3.80;99.90;;;;;;5092969;28;20079;-68
2022/01/19 09:46:48;;;;;;;46.83;29.13;;;3.80;99.90;;;;;;5089432;28;20381;-68
2022/01/19 09:49:17;;;;;;;49.92;30.60;;;3.80;99.90;;;;;;5091455;28;20079;-68
2022/01/19 09:51:44;;;;;;;49.50;29.67;;;3.80;99.90;;;;;;5089624;28;20105;-68
2022/01/19 09:54:15;;;;;;;51.42;30.48;;;3.90;99.90;;;;;;5090065;28;20132;-69
2022/01/19 09:56:42;;;;;;;49.50;30.63;;;3.90;99.90;;;;;;5091778;28;20396;-68
2022/01/19 09:59:08;;;;;;;50.17;30.60;;;4.00;99.90;;;;;;5092733;28;20044;-67
2022/01/19 10:01:34;;;;;;;49.45;31.13;;;4.00;99.90;;;;;;5093304;28;20040;-69
2022/01/19 10:04:19;;;;;;;46.97;29.80;;;4.00;99.90;;;;;;5095686;28;20442;-69
2022/01/19 10:06:44;;;;;;;49.97;31.00;;;4.00;99.90;;;;;;5093605;28;20131;-69
2022/01/19 10:09:10;;;;;;;47.33;29.13;;;4.00;99.90;;;;;;5078285;28;20072;-69
2022/01/19 10:17:10;;;;;;;54.78;29.05;;;4.10;99.90;;;;;;5079499;28;20044;-68
2022/01/19 10:19:45;;;;;;;54.03;30.27;;;4.10;99.90;;;;;;5085760;28;20178;-69
2022/01/19 10:22:20;;;;;;;51.15;30.50;;;4.10;99.90;;;;;;5075936;28;20063;-67
2022/01/19 10:24:47;;;;;;;56.38;31.70;;;4.10;99.90;;;;;;5084303;28;20079;-68
2022/01/19 10:27:35;;;;;;;51.60;30.42;;;4.20;99.90;;;;;;5095984;28;20132;-68
2022/01/19 10:30:04;;;;;;;50.40;30.30;;;4.20;99.90;;;;;;5093389;28;20133;-67
2022/01/19 10:32:36;;;;;;;54.80;29.52;;;4.30;99.90;;;;;;5092161;28;20499;-68
2022/01/19 10:35:12;;;;;;;51.77;30.80;;;4.30;99.90;;;;;;5094661;28;20130;-69
2022/01/19 10:37:37;;;;;;;52.53;31.92;;;4.30;99.90;;;;;;5093088;28;20309;-68
2022/01/19 10:40:04;;;;;;;56.22;31.23;;;4.30;99.90;;;;;;5094474;28;20048;-68
2022/01/19 10:42:31;;;;;;;55.90;32.78;;;4.30;99.90;;;;;;5093185;28;20063;-69
2022/01/19 10:45:16;;;;;;;53.47;32.70;;;4.30;99.90;;;;;;5077660;28;20058;-70
2022/01/19 10:47:53;;;;;;;56.75;33.60;;;4.40;99.90;;;;;;5087894;28;20058;-68
2022/01/19 10:50:22;;;;;;;54.38;33.45;;;4.40;99.90;;;;;;5081289;28;20052;-68
2022/01/19 10:52:48;;;;;;;59.13;34.03;;;4.40;99.90;;;;;;5073482;28;20044;-67
2022/01/19 10:55:19;;;;;;;58.53;33.50;;;4.40;99.90;;;;;;5084946;28;20051;-68
2022/01/19 10:57:47;;;;;;;59.70;35.38;;;4.40;99.90;;;;;;5069942;28;20090;-69
2022/01/19 11:00:22;;;;;;;62.10;35.13;;;4.40;99.90;;;;;;5084662;28;20053;-67
2022/01/19 11:02:49;;;;;;;63.35;34.47;;;4.50;99.90;;;;;;5098087;28;20060;-69
2022/01/19 11:05:16;;;;;;;65.07;35.90;;;4.50;99.90;;;;;;5075819;28;20044;-67
2022/01/19 11:07:42;;;;;;;66.18;35.55;;;4.60;99.90;;;;;;5093775;28;20098;-70
2022/01/19 11:10:13;;;;;;;60.78;35.65;;;4.60;99.90;;;;;;5092369;28;20052;-68
2022/01/19 11:12:49;;;;;;;63.20;34.92;;;4.50;99.90;;;;;;5094957;28;20040;-70
2022/01/19 11:15:18;;;;;;;62.47;34.35;;;4.60;99.90;;;;;;5093532;28;20051;-72
2022/01/19 11:17:48;;;;;;;57.88;34.67;;;4.60;99.90;;;;;;5092467;28;20049;-68
2022/01/19 11:20:20;;;;;;;60.75;34.33;;;4.60;99.90;;;;;;5074548;28;20056;-68
2022/01/19 11:23:18;;;;;;;66.53;35.65;;;4.60;99.90;;;;;;5093450;28;20058;-67
2022/01/19 11:26:07;;;;;;;60.50;35.53;;;4.60;99.90;;;;;;5094257;28;20052;-67
2022/01/19 11:28:44;;;;;;;66.70;38.10;;;4.50;99.90;;;;;;5094364;28;20052;-68
2022/01/19 11:31:34;;;;;;;72.18;39.25;;;4.50;99.90;;;;;;5093134;28;20139;-68
2022/01/19 11:34:00;;;;;;;74.65;39.22;;;4.50;99.90;;;;;;5093545;28;20055;-70
2022/01/19 11:36:34;;;;;;;74.65;39.33;;;4.50;99.90;;;;;;5093438;28;20488;-68
2022/01/19 11:39:20;;;;;;;72.22;40.00;;;4.50;99.90;;;;;;5092862;28;20135;-69
2022/01/19 11:42:00;;;;;;;77.90;41.22;;;4.50;99.90;;;;;;5094009;28;20048;-68
2022/01/19 11:44:28;;;;;;;76.72;40.60;;;4.50;99.90;;;;;;5087048;28;20052;-71
2022/01/19 11:46:56;;;;;;;79.50;41.28;;;4.40;99.90;;;;;;5072223;28;20056;-67
2022/01/19 11:49:57;;;;;;;77.95;41.17;;;4.40;99.90;;;;;;5072635;28;20056;-70
2022/01/19 11:52:28;;;;;;;83.65;41.83;;;4.40;99.90;;;;;;5073911;28;20059;-68
2022/01/19 11:55:14;;;;;;;82.82;42.20;;;4.30;99.90;;;;;;5072874;28;20123;-67
2022/01/19 11:57:41;;;;;;;87.07;42.67;;;4.40;99.90;;;;;;5072635;28;20159;-66
2022/01/19 12:00:20;;;;;;;87.25;41.90;;;4.40;99.90;;;;;;5076673;28;20051;-68
2022/01/19 12:02:48;;;;;;;86.88;43.30;;;4.30;99.90;;;;;;5055109;28;20040;-66
2022/01/19 12:05:29;;;;;;;85.10;44.08;;;4.40;99.90;;;;;;5072762;28;20457;-68
2022/01/19 12:08:00;;;;;;;84.40;41.90;;;4.40;99.90;;;;;;5072551;28;20060;-67
2022/01/19 12:10:32;;;;;;;80.15;42.22;;;4.50;99.90;;;;;;5093489;28;20058;-67
2022/01/19 12:13:56;;;;;;;92.22;45.40;;;4.50;99.90;;;;;;5093259;28;20055;-69
2022/01/19 12:16:49;;;;;;;85.57;43.22;;;4.50;99.90;;;;;;5092019;28;20048;-68
2022/01/19 12:19:20;;;;;;;83.35;42.05;;;4.60;99.90;;;;;;5092797;28;20109;-69
2022/01/19 12:22:06;;;;;;;87.18;42.33;;;4.50;99.90;;;;;;5089663;28;20054;-67
2022/01/19 12:24:36;;;;;;;82.80;41.70;;;4.60;99.90;;;;;;5088907;28;20039;-69
2022/01/19 12:27:15;;;;;;;78.70;42.58;;;4.60;99.90;;;;;;5073207;28;20208;-69
2022/01/19 12:29:45;;;;;;;81.95;42.10;;;4.60;99.90;;;;;;5090742;28;20136;-67
2022/01/19 12:32:16;;;;;;;78.03;40.75;;;5.10;99.90;;;;;;5075171;28;20052;-68
2022/01/19 12:34:44;;;;;;;78.70;42.00;;;4.60;99.90;;;;;;5093742;28;20060;-68
2022/01/19 12:37:12;;;;;;;85.90;42.38;;;4.60;99.90;;;;;;5091480;28;20051;-68
2022/01/19 12:39:46;;;;;;;79.85;39.55;;;4.70;99.90;;;;;;5084503;28;20052;-69
2022/01/19 12:42:20;;;;;;;82.97;41.70;;;4.70;99.90;;;;;;5071577;28;20045;-67
2022/01/19 12:44:52;;;;;;;80.20;41.28;;;4.70;99.90;;;;;;5073022;28;20048;-69
2022/01/19 12:47:26;;;;;;;82.65;39.92;;;4.70;99.90;;;;;;5085699;28;20048;-67
2022/01/19 12:49:56;;;;;;;83.05;42.17;;;4.60;99.90;;;;;;5094945;28;20055;-69
2022/01/19 12:52:27;;;;;;;77.20;41.75;;;4.60;99.90;;;;;;5091329;28;20051;-68
2022/01/19 12:54:54;;;;;;;80.28;40.83;;;4.80;99.90;;;;;;5079763;28;20064;-67
2022/01/19 12:57:21;;;;;;;76.82;40.58;;;4.60;99.90;;;;;;5075505;28;20052;-67
2022/01/19 12:59:50;;;;;;;80.75;41.55;;;4.60;99.90;;;;;;5080133;28;20060;-67
2022/01/19 13:02:18;;;;;;;84.85;43.13;;;4.60;99.90;;;;;;5070960;28;20080;-68
2022/01/19 13:04:46;;;;;;;75.15;40.95;;;4.60;99.90;;;;;;5071787;28;20122;-67
2022/01/19 13:07:27;;;;;;;76.18;40.78;;;4.60;99.90;;;;;;5072532;28;20049;-69
2022/01/19 13:10:08;;;;;;;81.00;40.72;;;4.60;99.90;;;;;;5071641;28;20052;-68
2022/01/19 13:12:39;;;;;;;84.53;42.42;;;4.60;99.90;;;;;;5121078;27;20123;-67
2022/01/19 13:15:05;;;;;;;79.22;40.92;;;4.70;99.90;;;;;;5092176;28;20090;-68
2022/01/19 13:17:45;;;;;;;78.85;39.47;;;4.70;99.90;;;;;;5088959;28;20052;-68
2022/01/19 13:20:16;;;;;;;75.47;39.50;;;4.70;99.90;;;;;;5091190;28;20070;-69
2022/01/19 13:23:09;;;;;;;75.25;39.25;;;4.70;99.90;;;;;;5073924;28;20059;-68
2022/01/19 13:25:35;;;;;;;74.38;37.72;;;4.70;99.90;;;;;;5085108;28;20063;-68
2022/01/19 13:28:02;;;;;;;72.97;41.72;;;4.70;99.90;;;;;;5085338;28;20396;-69
2022/01/19 13:30:30;;;;;;;71.57;38.22;;;4.80;99.90;;;;;;5091434;28;20059;-70
2022/01/19 13:32:56;;;;;;;74.15;37.05;;;4.90;99.90;;;;;;5093693;28;20048;-68
2022/01/19 13:35:24;;;;;;;71.38;37.97;;;4.90;99.90;;;;;;5077445;28;20131;-68
2022/01/19 13:37:57;;;;;;;72.13;40.38;;;5.00;99.90;;;;;;5094693;28;20055;-68
2022/01/19 13:40:31;;;;;;;64.43;35.35;;;5.00;99.90;;;;;;5095200;28;20443;-68
2022/01/19 13:43:05;;;;;;;63.05;34.17;;;5.00;99.90;;;;;;5074717;28;20551;-68
2022/01/19 13:50:42;;;;;;;59.85;32.47;;;5.10;99.90;;;;;;5075556;28;20129;-67
2022/01/19 13:53:09;;;;;;;70.40;35.95;;;5.10;99.90;;;;;;5059063;28;20477;-67
2022/01/19 13:55:35;;;;;;;61.05;33.50;;;5.10;99.90;;;;;;5091678;28;20079;-67
2022/01/19 13:58:15;;;;;;;57.80;31.95;;;5.20;99.90;;;;;;5101446;28;20096;-68
2022/01/19 14:00:57;;;;;;;61.40;33.35;;;5.20;99.90;;;;;;5097916;28;20052;-68
2022/01/19 14:03:24;;;;;;;57.03;30.13;;;5.30;99.90;;;;;;5095261;28;20460;-67
2022/01/19 14:09:32;;;;;;;51.88;29.30;;;5.30;99.90;;;;;;5080994;28;20135;-67
2022/01/19 14:11:58;;;;;;;52.17;30.42;;;5.30;99.90;;;;;;5075178;28;20428;-69